sensor_id;sensor_type;location;lat;lon;timestamp;temperature;humidity
5792;DHT22;2922;53.482;10.006;2024-02-21T00:01:27;9.20;99.90
5792;DHT22;2922;53.482;10.006;2024-02-21T00:03:53;9.10;99.90
5792;DHT22;2922;53.482;10.006;2024-02-21T00:06:19;9.10;99.90
5792;DHT22;2922;53.482;10.006;2024-02-21T00:08:44;9.10;99.90
5792;DHT22;2922;53.482;10.006;2024-02-21T00:11:13;9.10;99.90
5792;DHT22;2922;53.482;10.006;2024-02-21T00:13:40;9.10;99.90
5792;DHT22;2922;53.482;10.006;2024-02-21T00:16:06;9.10;99.90
5792;DHT22;2922;53.482;10.006;2024-02-21T00:18:35;9.10;99.90
5792;DHT22;2922;53.482;10.006;2024-02-21T00:21:01;9.10;99.90
5792;DHT22;2922;53.482;10.006;2024-02-21T00:23:27;9.10;99.90
5792;DHT22;2922;53.482;10.006;2024-02-21T00:25:54;9.10;99.90
5792;DHT22;2922;53.482;10.006;2024-02-21T00:28:19;9.00;99.90
5792;DHT22;2922;53.482;10.006;2024-02-21T00:30:47;9.00;99.90
5792;DHT22;2922;53.482;10.006;2024-02-21T00:43:57;9.00;99.90
5792;DHT22;2922;53.482;10.006;2024-02-21T00:46:48;9.00;99.90
5792;DHT22;2922;53.482;10.006;2024-02-21T00:49:14;9.00;99.90
5792;DHT22;2922;53.482;10.006;2024-02-21T00:51:40;9.00;99.90
5792;DHT22;2922;53.482;10.006;2024-02-21T00:54:16;9.00;99.90
5792;DHT22;2922;53.482;10.006;2024-02-21T00:56:42;9.00;99.90
5792;DHT22;2922;53.482;10.006;2024-02-21T00:59:11;9.00;99.90
5792;DHT22;2922;53.482;10.006;2024-02-21T01:01:40;9.00;99.90
5792;DHT22;2922;53.482;10.006;2024-02-21T01:04:09;9.00;99.90
5792;DHT22;2922;53.482;10.006;2024-02-21T01:06:35;9.00;99.90
5792;DHT22;2922;53.482;10.006;2024-02-21T01:09:01;9.10;99.90
5792;DHT22;2922;53.482;10.006;2024-02-21T01:11:27;9.00;99.90
5792;DHT22;2922;53.482;10.006;2024-02-21T01:13:53;9.10;99.90
5792;DHT22;2922;53.482;10.006;2024-02-21T01:16:27;9.00;99.90
5792;DHT22;2922;53.482;10.006;2024-02-21T01:18:53;9.10;99.90
5792;DHT22;2922;53.482;10.006;2024-02-21T01:24:45;9.10;99.90
5792;DHT22;2922;53.482;10.006;2024-02-21T01:27:10;9.00;99.90
5792;DHT22;2922;53.482;10.006;2024-02-21T01:29:37;9.00;99.90
5792;DHT22;2922;53.482;10.006;2024-02-21T01:32:04;9.10;99.90
5792;DHT22;2922;53.482;10.006;2024-02-21T01:34:35;9.00;99.90
5792;DHT22;2922;53.482;10.006;2024-02-21T01:37:18;9.10;99.90
5792;DHT22;2922;53.482;10.006;2024-02-21T01:40:43;9.00;99.90
5792;DHT22;2922;53.482;10.006;2024-02-21T01:46:50;9.00;99.90
5792;DHT22;2922;53.482;10.006;2024-02-21T01:49:18;9.00;99.90
5792;DHT22;2922;53.482;10.006;2024-02-21T01:51:44;9.00;99.90
5792;DHT22;2922;53.482;10.006;2024-02-21T01:54:14;9.00;99.90
5792;DHT22;2922;53.482;10.006;2024-02-21T02:00:05;9.00;99.90
5792;DHT22;2922;53.482;10.006;2024-02-21T02:06:05;9.00;99.90
5792;DHT22;2922;53.482;10.006;2024-02-21T02:12:03;8.90;99.90
5792;DHT22;2922;53.482;10.006;2024-02-21T02:14:32;8.90;99.90
5792;DHT22;2922;53.482;10.006;2024-02-21T05:17:36;8.80;99.90
5792;DHT22;2922;53.482;10.006;2024-02-21T05:20:42;8.80;99.90
5792;DHT22;2922;53.482;10.006;2024-02-21T05:23:12;8.80;99.90
5792;DHT22;2922;53.482;10.006;2024-02-21T05:25:58;8.80;99.90
5792;DHT22;2922;53.482;10.006;2024-02-21T05:28:48;8.70;99.90
5792;DHT22;2922;53.482;10.006;2024-02-21T05:31:24;8.80;99.90
5792;DHT22;2922;53.482;10.006;2024-02-21T05:33:57;8.70;99.90
5792;DHT22;2922;53.482;10.006;2024-02-21T05:36:30;8.80;99.90
5792;DHT22;2922;53.482;10.006;2024-02-21T05:45:20;8.70;99.90
5792;DHT22;2922;53.482;10.006;2024-02-21T05:47:55;8.70;99.90
5792;DHT22;2922;53.482;10.006;2024-02-21T05:50:26;8.70;99.90
5792;DHT22;2922;53.482;10.006;2024-02-21T05:53:31;8.70;99.90
5792;DHT22;2922;53.482;10.006;2024-02-21T05:59:24;8.70;99.90
5792;DHT22;2922;53.482;10.006;2024-02-21T06:02:04;8.70;99.90
5792;DHT22;2922;53.482;10.006;2024-02-21T09:11:17;8.60;99.90
5792;DHT22;2922;53.482;10.006;2024-02-21T09:13:43;8.60;99.90
5792;DHT22;2922;53.482;10.006;2024-02-21T09:16:08;8.50;99.90
5792;DHT22;2922;53.482;10.006;2024-02-21T09:18:34;8.60;99.90
5792;DHT22;2922;53.482;10.006;2024-02-21T09:21:00;8.60;99.90
5792;DHT22;2922;53.482;10.006;2024-02-21T09:23:26;8.60;99.90
5792;DHT22;2922;53.482;10.006;2024-02-21T09:25:51;8.60;99.90
5792;DHT22;2922;53.482;10.006;2024-02-21T09:28:17;8.60;99.90
5792;DHT22;2922;53.482;10.006;2024-02-21T09:30:49;8.60;99.90
5792;DHT22;2922;53.482;10.006;2024-02-21T09:33:18;8.60;99.90
5792;DHT22;2922;53.482;10.006;2024-02-21T09:35:44;8.60;99.90
5792;DHT22;2922;53.482;10.006;2024-02-21T09:38:09;8.70;99.90
5792;DHT22;2922;53.482;10.006;2024-02-21T09:40:35;8.70;99.90
5792;DHT22;2922;53.482;10.006;2024-02-21T09:43:10;8.70;99.90
5792;DHT22;2922;53.482;10.006;2024-02-21T09:45:38;8.80;99.90
5792;DHT22;2922;53.482;10.006;2024-02-21T09:50:45;8.90;99.90
5792;DHT22;2922;53.482;10.006;2024-02-21T09:53:12;8.90;99.90
5792;DHT22;2922;53.482;10.006;2024-02-21T09:55:43;9.00;99.90
5792;DHT22;2922;53.482;10.006;2024-02-21T09:58:09;9.00;99.90
5792;DHT22;2922;53.482;10.006;2024-02-21T10:00:38;9.10;99.90
5792;DHT22;2922;53.482;10.006;2024-02-21T10:03:04;9.10;99.90
5792;DHT22;2922;53.482;10.006;2024-02-21T10:05:36;9.10;99.90
5792;DHT22;2922;53.482;10.006;2024-02-21T10:08:03;9.10;99.90
5792;DHT22;2922;53.482;10.006;2024-02-21T10:10:29;9.10;99.90
5792;DHT22;2922;53.482;10.006;2024-02-21T10:12:55;9.10;99.90
5792;DHT22;2922;53.482;10.006;2024-02-21T10:15:22;9.10;99.90
5792;DHT22;2922;53.482;10.006;2024-02-21T10:17:50;9.10;99.90
5792;DHT22;2922;53.482;10.006;2024-02-21T10:20:23;9.20;99.90
5792;DHT22;2922;53.482;10.006;2024-02-21T10:22:48;9.20;99.90
5792;DHT22;2922;53.482;10.006;2024-02-21T10:25:14;9.20;99.90
5792;DHT22;2922;53.482;10.006;2024-02-21T10:27:40;9.20;99.90
5792;DHT22;2922;53.482;10.006;2024-02-21T10:30:12;9.20;99.90
5792;DHT22;2922;53.482;10.006;2024-02-21T10:32:51;9.20;99.90
5792;DHT22;2922;53.482;10.006;2024-02-21T10:35:29;9.30;99.90
5792;DHT22;2922;53.482;10.006;2024-02-21T10:37:58;9.30;99.90
5792;DHT22;2922;53.482;10.006;2024-02-21T10:40:28;9.40;99.90
5792;DHT22;2922;53.482;10.006;2024-02-21T10:42:58;9.40;99.90
5792;DHT22;2922;53.482;10.006;2024-02-21T10:45:34;9.40;99.90
5792;DHT22;2922;53.482;10.006;2024-02-21T10:48:13;9.40;99.90
5792;DHT22;2922;53.482;10.006;2024-02-21T10:50:57;9.40;99.90
5792;DHT22;2922;53.482;10.006;2024-02-21T10:58:42;9.40;99.90
5792;DHT22;2922;53.482;10.006;2024-02-21T11:01:09;9.40;99.90
5792;DHT22;2922;53.482;10.006;2024-02-21T11:03:37;9.40;99.90
5792;DHT22;2922;53.482;10.006;2024-02-21T11:06:03;9.40;99.90
5792;DHT22;2922;53.482;10.006;2024-02-21T11:08:34;9.40;99.90
5792;DHT22;2922;53.482;10.006;2024-02-21T11:11:00;9.40;99.90
5792;DHT22;2922;53.482;10.006;2024-02-21T11:13:35;9.40;99.90
5792;DHT22;2922;53.482;10.006;2024-02-21T11:16:11;9.40;99.90
5792;DHT22;2922;53.482;10.006;2024-02-21T11:18:38;9.40;99.90
5792;DHT22;2922;53.482;10.006;2024-02-21T11:21:04;9.40;99.90
5792;DHT22;2922;53.482;10.006;2024-02-21T11:23:32;9.40;99.90
5792;DHT22;2922;53.482;10.006;2024-02-21T11:26:08;9.30;99.90
5792;DHT22;2922;53.482;10.006;2024-02-21T11:28:33;9.40;99.90
5792;DHT22;2922;53.482;10.006;2024-02-21T11:31:13;9.40;99.90
5792;DHT22;2922;53.482;10.006;2024-02-21T11:33:42;9.30;99.90
5792;DHT22;2922;53.482;10.006;2024-02-21T11:36:11;9.40;99.90
5792;DHT22;2922;53.482;10.006;2024-02-21T11:38:37;9.40;99.90
5792;DHT22;2922;53.482;10.006;2024-02-21T11:41:02;9.40;99.90
5792;DHT22;2922;53.482;10.006;2024-02-21T11:43:28;9.40;99.90
5792;DHT22;2922;53.482;10.006;2024-02-21T11:46:01;9.40;99.90
5792;DHT22;2922;53.482;10.006;2024-02-21T11:48:29;9.40;99.90
5792;DHT22;2922;53.482;10.006;2024-02-21T11:50:56;9.30;99.90
5792;DHT22;2922;53.482;10.006;2024-02-21T11:53:21;9.40;99.90
5792;DHT22;2922;53.482;10.006;2024-02-21T11:55:47;9.40;99.90
5792;DHT22;2922;53.482;10.006;2024-02-21T11:58:13;9.40;99.90
5792;DHT22;2922;53.482;10.006;2024-02-21T12:00:38;9.40;99.90
5792;DHT22;2922;53.482;10.006;2024-02-21T12:03:05;9.40;99.90
5792;DHT22;2922;53.482;10.006;2024-02-21T12:05:31;9.40;99.90
5792;DHT22;2922;53.482;10.006;2024-02-21T12:07:57;9.40;99.90
5792;DHT22;2922;53.482;10.006;2024-02-21T12:10:26;9.40;99.90
5792;DHT22;2922;53.482;10.006;2024-02-21T12:12:53;9.40;99.90
5792;DHT22;2922;53.482;10.006;2024-02-21T12:15:20;9.30;99.90
5792;DHT22;2922;53.482;10.006;2024-02-21T12:17:46;9.30;99.90
5792;DHT22;2922;53.482;10.006;2024-02-21T12:20:11;9.30;99.90
5792;DHT22;2922;53.482;10.006;2024-02-21T12:22:43;9.30;99.90
5792;DHT22;2922;53.482;10.006;2024-02-21T12:25:19;9.30;99.90
5792;DHT22;2922;53.482;10.006;2024-02-21T12:27:48;9.20;99.90
5792;DHT22;2922;53.482;10.006;2024-02-21T12:30:15;9.30;99.90
5792;DHT22;2922;53.482;10.006;2024-02-21T12:32:40;9.30;99.90
5792;DHT22;2922;53.482;10.006;2024-02-21T12:35:07;9.20;99.90
5792;DHT22;2922;53.482;10.006;2024-02-21T12:37:32;9.30;99.90
5792;DHT22;2922;53.482;10.006;2024-02-21T12:39:58;9.30;99.90
5792;DHT22;2922;53.482;10.006;2024-02-21T12:42:24;9.40;99.90
5792;DHT22;2922;53.482;10.006;2024-02-21T12:44:51;9.40;99.90
5792;DHT22;2922;53.482;10.006;2024-02-21T12:47:18;9.40;99.90
5792;DHT22;2922;53.482;10.006;2024-02-21T12:49:45;9.40;99.90
5792;DHT22;2922;53.482;10.006;2024-02-21T12:52:11;9.40;99.90
5792;DHT22;2922;53.482;10.006;2024-02-21T12:54:37;9.40;99.90
5792;DHT22;2922;53.482;10.006;2024-02-21T12:57:02;9.50;99.90
5792;DHT22;2922;53.482;10.006;2024-02-21T12:59:29;9.50;99.90
5792;DHT22;2922;53.482;10.006;2024-02-21T13:01:54;9.50;99.90
5792;DHT22;2922;53.482;10.006;2024-02-21T13:04:20;9.50;99.90
5792;DHT22;2922;53.482;10.006;2024-02-21T13:06:48;9.60;99.90
5792;DHT22;2922;53.482;10.006;2024-02-21T13:09:14;9.60;99.90
5792;DHT22;2922;53.482;10.006;2024-02-21T13:11:40;9.70;99.90
5792;DHT22;2922;53.482;10.006;2024-02-21T13:14:06;9.70;99.90
5792;DHT22;2922;53.482;10.006;2024-02-21T13:16:32;9.80;99.90
5792;DHT22;2922;53.482;10.006;2024-02-21T13:19:07;9.80;99.90
5792;DHT22;2922;53.482;10.006;2024-02-21T13:21:36;9.90;99.90
5792;DHT22;2922;53.482;10.006;2024-02-21T13:24:02;9.90;99.90
5792;DHT22;2922;53.482;10.006;2024-02-21T13:26:27;9.90;99.90
5792;DHT22;2922;53.482;10.006;2024-02-21T13:28:53;9.80;99.90
5792;DHT22;2922;53.482;10.006;2024-02-21T13:31:19;9.80;99.90
5792;DHT22;2922;53.482;10.006;2024-02-21T13:33:45;9.80;99.90
5792;DHT22;2922;53.482;10.006;2024-02-21T13:36:11;9.80;99.90
5792;DHT22;2922;53.482;10.006;2024-02-21T13:38:36;9.80;99.90
5792;DHT22;2922;53.482;10.006;2024-02-21T13:41:05;9.90;99.90
5792;DHT22;2922;53.482;10.006;2024-02-21T13:43:30;9.90;99.90
5792;DHT22;2922;53.482;10.006;2024-02-21T13:46:00;9.90;99.90
5792;DHT22;2922;53.482;10.006;2024-02-21T13:48:30;9.90;99.90
5792;DHT22;2922;53.482;10.006;2024-02-21T13:50:56;9.90;99.90
5792;DHT22;2922;53.482;10.006;2024-02-21T13:53:22;9.90;99.90
5792;DHT22;2922;53.482;10.006;2024-02-21T13:55:49;9.90;99.90
5792;DHT22;2922;53.482;10.006;2024-02-21T13:58:15;10.00;99.90
5792;DHT22;2922;53.482;10.006;2024-02-21T14:00:41;10.00;99.90
5792;DHT22;2922;53.482;10.006;2024-02-21T14:03:06;10.00;99.90
5792;DHT22;2922;53.482;10.006;2024-02-21T14:05:32;10.00;99.90
5792;DHT22;2922;53.482;10.006;2024-02-21T14:07:58;10.10;99.90
5792;DHT22;2922;53.482;10.006;2024-02-21T14:10:23;10.10;99.90
5792;DHT22;2922;53.482;10.006;2024-02-21T14:12:49;10.20;99.90
5792;DHT22;2922;53.482;10.006;2024-02-21T14:15:15;10.20;99.90
5792;DHT22;2922;53.482;10.006;2024-02-21T14:17:42;10.20;99.90
5792;DHT22;2922;53.482;10.006;2024-02-21T14:20:08;10.20;99.90
5792;DHT22;2922;53.482;10.006;2024-02-21T14:22:34;10.20;99.90
5792;DHT22;2922;53.482;10.006;2024-02-21T14:25:00;10.30;99.90
5792;DHT22;2922;53.482;10.006;2024-02-21T14:27:26;10.30;99.90
5792;DHT22;2922;53.482;10.006;2024-02-21T14:29:51;10.30;99.90
5792;DHT22;2922;53.482;10.006;2024-02-21T14:32:18;10.40;99.90
5792;DHT22;2922;53.482;10.006;2024-02-21T14:34:45;10.40;99.90
5792;DHT22;2922;53.482;10.006;2024-02-21T14:37:11;10.40;99.90
5792;DHT22;2922;53.482;10.006;2024-02-21T14:39:36;10.40;99.90
5792;DHT22;2922;53.482;10.006;2024-02-21T14:42:02;10.40;99.90
5792;DHT22;2922;53.482;10.006;2024-02-21T14:44:28;10.40;99.90
5792;DHT22;2922;53.482;10.006;2024-02-21T14:46:53;10.50;99.90
5792;DHT22;2922;53.482;10.006;2024-02-21T14:49:19;10.40;99.90
5792;DHT22;2922;53.482;10.006;2024-02-21T14:51:45;10.40;99.90
5792;DHT22;2922;53.482;10.006;2024-02-21T14:54:10;10.40;99.90
5792;DHT22;2922;53.482;10.006;2024-02-21T14:56:36;10.40;99.90
5792;DHT22;2922;53.482;10.006;2024-02-21T14:59:02;10.30;99.90
5792;DHT22;2922;53.482;10.006;2024-02-21T15:01:29;10.30;99.90
5792;DHT22;2922;53.482;10.006;2024-02-21T15:03:55;10.30;99.90
5792;DHT22;2922;53.482;10.006;2024-02-21T15:06:20;10.30;99.90
5792;DHT22;2922;53.482;10.006;2024-02-21T15:08:46;10.30;99.90
5792;DHT22;2922;53.482;10.006;2024-02-21T15:11:14;10.30;99.90
5792;DHT22;2922;53.482;10.006;2024-02-21T15:13:39;10.30;99.90
5792;DHT22;2922;53.482;10.006;2024-02-21T15:16:05;10.30;99.90
5792;DHT22;2922;53.482;10.006;2024-02-21T15:18:31;10.30;99.90
5792;DHT22;2922;53.482;10.006;2024-02-21T15:20:58;10.20;99.90
5792;DHT22;2922;53.482;10.006;2024-02-21T15:23:24;10.20;99.90
5792;DHT22;2922;53.482;10.006;2024-02-21T15:25:50;10.20;99.90
5792;DHT22;2922;53.482;10.006;2024-02-21T15:28:16;10.20;99.90
5792;DHT22;2922;53.482;10.006;2024-02-21T15:30:41;10.20;99.90
5792;DHT22;2922;53.482;10.006;2024-02-21T15:33:07;10.10;99.90
5792;DHT22;2922;53.482;10.006;2024-02-21T15:35:32;10.10;99.90
5792;DHT22;2922;53.482;10.006;2024-02-21T15:37:59;10.10;99.90
5792;DHT22;2922;53.482;10.006;2024-02-21T15:40:25;10.10;99.90
5792;DHT22;2922;53.482;10.006;2024-02-21T15:42:50;10.10;99.90
5792;DHT22;2922;53.482;10.006;2024-02-21T15:45:17;10.00;99.90
5792;DHT22;2922;53.482;10.006;2024-02-21T15:47:42;10.00;99.90
5792;DHT22;2922;53.482;10.006;2024-02-21T15:50:08;10.00;99.90
5792;DHT22;2922;53.482;10.006;2024-02-21T15:52:36;9.90;99.90
5792;DHT22;2922;53.482;10.006;2024-02-21T15:55:02;9.90;99.90
5792;DHT22;2922;53.482;10.006;2024-02-21T15:57:27;9.90;99.90
5792;DHT22;2922;53.482;10.006;2024-02-21T15:59:53;9.90;99.90
5792;DHT22;2922;53.482;10.006;2024-02-21T16:02:20;9.90;99.90
5792;DHT22;2922;53.482;10.006;2024-02-21T16:04:46;9.90;99.90
5792;DHT22;2922;53.482;10.006;2024-02-21T16:07:12;9.90;99.90
5792;DHT22;2922;53.482;10.006;2024-02-21T16:09:38;9.90;99.90
5792;DHT22;2922;53.482;10.006;2024-02-21T16:12:03;9.90;99.90
5792;DHT22;2922;53.482;10.006;2024-02-21T16:14:31;9.80;99.90
5792;DHT22;2922;53.482;10.006;2024-02-21T16:16:57;9.80;99.90
5792;DHT22;2922;53.482;10.006;2024-02-21T16:19:23;9.80;99.90
5792;DHT22;2922;53.482;10.006;2024-02-21T16:21:48;9.80;99.90
5792;DHT22;2922;53.482;10.006;2024-02-21T16:24:14;9.80;99.90
5792;DHT22;2922;53.482;10.006;2024-02-21T16:26:40;9.70;99.90
5792;DHT22;2922;53.482;10.006;2024-02-21T16:29:06;9.70;99.90
5792;DHT22;2922;53.482;10.006;2024-02-21T16:31:34;9.60;99.90
5792;DHT22;2922;53.482;10.006;2024-02-21T16:34:04;9.60;99.90
5792;DHT22;2922;53.482;10.006;2024-02-21T16:36:29;9.50;99.90
5792;DHT22;2922;53.482;10.006;2024-02-21T16:38:57;9.60;99.90
5792;DHT22;2922;53.482;10.006;2024-02-21T16:41:25;9.50;99.90
5792;DHT22;2922;53.482;10.006;2024-02-21T16:43:51;9.50;99.90
5792;DHT22;2922;53.482;10.006;2024-02-21T16:46:16;9.50;99.90
5792;DHT22;2922;53.482;10.006;2024-02-21T16:48:42;9.50;99.90
5792;DHT22;2922;53.482;10.006;2024-02-21T16:51:09;9.40;99.90
5792;DHT22;2922;53.482;10.006;2024-02-21T16:53:35;9.40;99.90
5792;DHT22;2922;53.482;10.006;2024-02-21T16:56:00;9.40;99.90
5792;DHT22;2922;53.482;10.006;2024-02-21T16:58:27;9.40;99.90
5792;DHT22;2922;53.482;10.006;2024-02-21T17:00:55;9.40;99.90
5792;DHT22;2922;53.482;10.006;2024-02-21T17:03:21;9.40;99.90
5792;DHT22;2922;53.482;10.006;2024-02-21T17:05:48;9.30;99.90
5792;DHT22;2922;53.482;10.006;2024-02-21T17:08:15;9.30;99.90
5792;DHT22;2922;53.482;10.006;2024-02-21T17:10:40;9.30;99.90
5792;DHT22;2922;53.482;10.006;2024-02-21T17:13:06;9.30;99.90
5792;DHT22;2922;53.482;10.006;2024-02-21T17:15:31;9.30;99.90
5792;DHT22;2922;53.482;10.006;2024-02-21T17:17:57;9.20;99.90
5792;DHT22;2922;53.482;10.006;2024-02-21T17:20:24;9.20;99.90
5792;DHT22;2922;53.482;10.006;2024-02-21T17:22:49;9.20;99.90
5792;DHT22;2922;53.482;10.006;2024-02-21T17:25:15;9.20;99.90
5792;DHT22;2922;53.482;10.006;2024-02-21T17:27:41;9.20;99.90
5792;DHT22;2922;53.482;10.006;2024-02-21T17:30:06;9.20;99.90
5792;DHT22;2922;53.482;10.006;2024-02-21T17:32:34;9.20;99.90
5792;DHT22;2922;53.482;10.006;2024-02-21T17:35:00;9.20;99.90
5792;DHT22;2922;53.482;10.006;2024-02-21T17:37:26;9.10;99.90
5792;DHT22;2922;53.482;10.006;2024-02-21T17:39:52;9.10;99.90
5792;DHT22;2922;53.482;10.006;2024-02-21T17:42:19;9.10;99.90
5792;DHT22;2922;53.482;10.006;2024-02-21T17:44:44;9.10;99.90
5792;DHT22;2922;53.482;10.006;2024-02-21T17:47:11;9.10;99.90
5792;DHT22;2922;53.482;10.006;2024-02-21T17:49:38;9.00;99.90
5792;DHT22;2922;53.482;10.006;2024-02-21T17:52:04;9.00;99.90
5792;DHT22;2922;53.482;10.006;2024-02-21T17:54:29;9.00;99.90
5792;DHT22;2922;53.482;10.006;2024-02-21T17:56:55;9.00;99.90
5792;DHT22;2922;53.482;10.006;2024-02-21T17:59:22;9.00;99.90
5792;DHT22;2922;53.482;10.006;2024-02-21T18:01:47;9.00;99.90
5792;DHT22;2922;53.482;10.006;2024-02-21T18:04:13;8.90;99.90
